Weather at Knockrome Airstrip

Public forecast

Using degrees Celsius for public forecast. Weather courtesy of forecast.io.

Closest aviation weather report (METAR) to Knockrome Airstrip

Closest report is Islay Airport, 16.1 nm (29.8 km) SW.

2024/05/22 23:20 (retrieved 13 minutes ago)

EGPI 222320Z AUTO /////KT 8000 -RA OVC014/// 09/08 Q1011

Closest aviation forecast (TAF) to Knockrome Airstrip

Closest forecast is Glasgow International Airport, 50.1 nm (92.9 km) E.

2024/05/22 18:00 (retrieved 6 hours ago)

TAF EGPF 221659Z 2218/2318 31009KT 9999 SCT025 TEMPO 2218/2224 6000 RA PROB40 TEMPO 2218/2224 3000 +RA BKN008 PROB30 TEMPO 2218/2221 33015G25KT PROB40 TEMPO 2300/2315 7000 -RA BKN014 TEMPO 2315/2318 4000 RADZ BKN014